createdAt,value
2018-08-27T00:01:47.471Z,5.27
2018-08-27T00:04:15.333Z,1.80
2018-08-27T00:06:43.093Z,10.03
2018-08-27T00:09:13.065Z,3.53
2018-08-27T00:11:41.875Z,6.40
2018-08-27T00:14:09.671Z,3.27
2018-08-27T00:16:38.469Z,3.83
2018-08-27T00:19:06.525Z,5.53
2018-08-27T00:21:34.233Z,6.50
2018-08-27T00:24:02.270Z,2.80
2018-08-27T00:26:30.134Z,4.07
2018-08-27T00:28:57.917Z,7.20
2018-08-27T00:31:26.110Z,9.20
2018-08-27T00:33:54.004Z,2.90
2018-08-27T00:36:21.963Z,3.43
2018-08-27T00:38:49.873Z,3.43
2018-08-27T00:41:18.017Z,5.23
2018-08-27T00:43:45.832Z,7.67
2018-08-27T00:46:14.092Z,5.73
2018-08-27T00:48:43.260Z,2.67
2018-08-27T00:51:11.676Z,2.33
2018-08-27T00:53:39.554Z,13.87
2018-08-27T00:56:07.460Z,4.23
2018-08-27T00:58:35.189Z,3.37
2018-08-27T01:01:03.636Z,9.50
2018-08-27T01:03:31.390Z,3.13
2018-08-27T01:05:59.170Z,2.17
2018-08-27T01:08:26.997Z,4.07
2018-08-27T01:10:54.902Z,3.47
2018-08-27T01:13:22.731Z,5.00
2018-08-27T01:15:50.615Z,4.63
2018-08-27T01:18:18.292Z,3.73
2018-08-27T01:20:55.544Z,4.00
2018-08-27T01:23:23.786Z,3.13
2018-08-27T01:25:52.277Z,3.43
2018-08-27T01:28:20.445Z,6.27
2018-08-27T01:30:48.213Z,1.50
2018-08-27T01:33:16.141Z,14.60
2018-08-27T01:35:43.921Z,3.37
2018-08-27T01:38:11.684Z,4.03
2018-08-27T01:40:39.407Z,11.50
2018-08-27T01:43:07.220Z,3.73
2018-08-27T01:45:36.058Z,1.50
2018-08-27T01:48:03.905Z,6.63
2018-08-27T01:50:31.750Z,6.57
2018-08-27T01:53:00.482Z,3.40
2018-08-27T01:55:28.287Z,3.23
2018-08-27T01:57:56.246Z,6.00
2018-08-27T02:00:23.848Z,3.07
2018-08-27T02:02:51.774Z,4.67
2018-08-27T02:05:19.584Z,2.07
2018-08-27T02:07:47.353Z,4.47
2018-08-27T02:10:15.043Z,4.80
2018-08-27T02:12:42.837Z,8.87
2018-08-27T02:15:10.611Z,2.40
2018-08-27T02:17:38.375Z,6.40
2018-08-27T02:20:06.199Z,9.20
2018-08-27T02:22:33.808Z,4.13
2018-08-27T02:25:01.622Z,2.20
2018-08-27T02:27:29.269Z,7.13
2018-08-27T02:29:57.086Z,8.67
2018-08-27T02:32:24.844Z,2.20
2018-08-27T02:34:52.668Z,8.13
2018-08-27T02:37:20.249Z,7.47
2018-08-27T02:39:47.981Z,8.00
2018-08-27T02:42:15.909Z,3.73
2018-08-27T02:44:43.669Z,5.30
2018-08-27T02:47:11.427Z,10.10
2018-08-27T02:49:39.176Z,3.53
2018-08-27T02:52:06.891Z,4.80
2018-08-27T02:54:34.524Z,3.43
2018-08-27T02:57:02.425Z,3.60
2018-08-27T02:59:30.180Z,1.93
2018-08-27T03:01:58.030Z,1.97
2018-08-27T03:04:25.952Z,4.53
2018-08-27T03:06:53.581Z,2.20
2018-08-27T03:09:21.341Z,1.93
2018-08-27T03:11:48.981Z,2.80
2018-08-27T03:14:16.836Z,2.10
2018-08-27T03:16:44.633Z,3.60
2018-08-27T03:19:12.263Z,6.57
2018-08-27T03:21:40.085Z,4.03
2018-08-27T03:24:07.874Z,5.83
2018-08-27T03:26:35.541Z,1.60
2018-08-27T03:29:03.336Z,2.60
2018-08-27T03:31:31.561Z,6.23
2018-08-27T03:34:00.839Z,1.63
2018-08-27T03:36:28.587Z,12.90
2018-08-27T03:39:01.497Z,2.47
2018-08-27T03:41:29.999Z,3.83
2018-08-27T03:43:58.470Z,5.67
2018-08-27T03:46:26.881Z,1.20
2018-08-27T03:48:55.137Z,1.70
2018-08-27T03:51:25.055Z,2.50
2018-08-27T03:53:54.728Z,4.03
2018-08-27T03:56:22.599Z,4.07
2018-08-27T03:58:50.274Z,5.57
2018-08-27T04:01:18.498Z,4.77
2018-08-27T04:03:46.462Z,3.60
2018-08-27T04:06:14.419Z,7.60
2018-08-27T04:08:42.725Z,1.67
2018-08-27T04:11:10.356Z,2.67
2018-08-27T04:13:38.420Z,8.13
2018-08-27T04:16:06.841Z,2.53
2018-08-27T04:18:34.601Z,7.07
2018-08-27T04:21:02.511Z,1.83
2018-08-27T04:23:30.238Z,2.30
2018-08-27T04:25:57.887Z,5.43
2018-08-27T04:28:25.549Z,4.67
2018-08-27T04:30:53.450Z,1.50
2018-08-27T04:33:21.270Z,5.80
2018-08-27T04:35:49.336Z,2.13
2018-08-27T04:38:17.136Z,2.03
2018-08-27T04:40:44.920Z,7.80
2018-08-27T04:43:12.669Z,1.70
2018-08-27T04:45:40.304Z,3.80
2018-08-27T04:48:07.939Z,2.33
2018-08-27T04:50:35.578Z,3.80
2018-08-27T04:53:03.385Z,3.00
2018-08-27T04:55:31.152Z,2.90
2018-08-27T04:57:58.817Z,2.73
2018-08-27T05:00:42.486Z,6.73
2018-08-27T05:03:10.952Z,4.23
2018-08-27T05:05:38.636Z,5.03
2018-08-27T05:08:06.791Z,2.73
2018-08-27T05:10:35.042Z,8.23
2018-08-27T05:13:03.172Z,6.97
2018-08-27T05:15:31.265Z,2.30
2018-08-27T05:17:59.137Z,11.63
2018-08-27T05:20:27.095Z,1.83
2018-08-27T05:22:54.776Z,2.40
2018-08-27T05:25:23.818Z,3.83
2018-08-27T05:27:51.496Z,7.37
2018-08-27T05:30:19.853Z,2.60
2018-08-27T05:32:47.704Z,17.60
2018-08-27T05:35:16.148Z,5.37
2018-08-27T05:37:44.056Z,4.70
2018-08-27T05:40:11.798Z,3.87
2018-08-27T05:42:39.425Z,4.47
2018-08-27T05:45:07.288Z,6.57
2018-08-27T05:47:37.070Z,3.00
2018-08-27T05:50:04.999Z,7.10
2018-08-27T05:52:32.805Z,4.07
2018-08-27T05:55:00.729Z,3.73
2018-08-27T05:57:28.642Z,3.30
2018-08-27T05:59:56.326Z,7.93
2018-08-27T06:02:23.939Z,4.37
2018-08-27T06:05:04.119Z,2.20
2018-08-27T06:07:32.144Z,3.87
2018-08-27T06:09:59.934Z,2.10
2018-08-27T06:12:27.631Z,7.97
2018-08-27T06:14:56.102Z,4.87
2018-08-27T06:17:23.873Z,6.03
2018-08-27T06:19:51.503Z,2.23
2018-08-27T06:22:19.377Z,2.57
2018-08-27T06:24:46.848Z,8.73
2018-08-27T06:27:14.485Z,2.90
2018-08-27T06:29:42.250Z,4.30
2018-08-27T06:32:09.911Z,6.23
2018-08-27T06:34:37.594Z,4.80
2018-08-27T06:37:05.325Z,3.20
2018-08-27T06:39:33.077Z,1.50
2018-08-27T06:42:00.795Z,1.90
2018-08-27T06:44:30.473Z,2.93
2018-08-27T06:46:58.184Z,3.00
2018-08-27T06:49:25.847Z,2.93
2018-08-27T06:51:53.445Z,3.23
2018-08-27T06:54:22.221Z,4.97
2018-08-27T06:56:50.086Z,2.43
2018-08-27T06:59:17.884Z,1.97
2018-08-27T07:01:46.178Z,1.60
2018-08-27T07:04:13.817Z,1.77
2018-08-27T07:06:41.580Z,2.23
2018-08-27T07:09:10.339Z,1.40
2018-08-27T07:11:39.850Z,1.73
2018-08-27T07:14:08.916Z,4.17
2018-08-27T07:16:36.991Z,2.80
2018-08-27T07:19:04.722Z,1.93
2018-08-27T07:21:32.629Z,12.70
2018-08-27T07:24:00.379Z,1.57
2018-08-27T07:26:28.181Z,2.63
2018-08-27T07:28:55.958Z,1.67
2018-08-27T07:31:23.724Z,2.80
2018-08-27T07:33:51.462Z,2.80
2018-08-27T07:36:19.169Z,4.77
2018-08-27T07:38:46.797Z,1.50
2018-08-27T07:41:14.691Z,3.63
2018-08-27T07:43:43.050Z,5.60
2018-08-27T07:46:10.847Z,3.53
2018-08-27T07:48:38.532Z,3.60
2018-08-27T07:51:06.255Z,1.27
2018-08-27T07:53:33.893Z,3.13
2018-08-27T07:56:01.599Z,6.73
2018-08-27T07:58:29.407Z,3.97
2018-08-27T08:00:57.261Z,1.77
2018-08-27T08:03:26.413Z,3.43
2018-08-27T08:05:54.656Z,5.40
2018-08-27T08:08:22.838Z,4.70
2018-08-27T08:10:50.632Z,3.47
2018-08-27T08:13:18.433Z,5.23
2018-08-27T08:15:46.345Z,7.63
2018-08-27T08:18:19.836Z,9.13
2018-08-27T08:20:49.168Z,7.00
2018-08-27T08:23:17.326Z,4.40
2018-08-27T08:25:45.926Z,3.60
2018-08-27T08:28:13.850Z,4.23
2018-08-27T08:30:42.375Z,9.00
2018-08-27T08:33:10.358Z,2.60
2018-08-27T08:35:37.973Z,7.57
2018-08-27T08:38:05.607Z,14.63
2018-08-27T08:40:34.382Z,10.20
2018-08-27T08:43:08.828Z,1.70
2018-08-27T08:45:36.544Z,11.37
2018-08-27T08:48:04.348Z,5.40
2018-08-27T08:50:32.128Z,9.37
2018-08-27T08:53:00.206Z,4.20
2018-08-27T08:55:28.051Z,4.40
2018-08-27T08:57:55.935Z,2.77
2018-08-27T09:00:23.756Z,1.53
2018-08-27T09:02:52.022Z,2.03
2018-08-27T09:05:19.793Z,3.87
2018-08-27T09:07:47.480Z,1.73
2018-08-27T09:10:15.281Z,2.33
2018-08-27T09:12:42.952Z,4.67
2018-08-27T09:15:10.976Z,2.00
2018-08-27T09:17:38.844Z,1.53
2018-08-27T09:20:07.119Z,7.63
2018-08-27T09:22:34.864Z,2.80
2018-08-27T09:25:02.657Z,3.10
2018-08-27T09:27:31.000Z,1.93
2018-08-27T09:29:58.725Z,4.90
2018-08-27T09:32:28.132Z,3.67
2018-08-27T09:34:57.440Z,7.97
2018-08-27T09:37:27.164Z,3.90
2018-08-27T09:39:55.280Z,1.80
2018-08-27T09:42:23.148Z,1.87
2018-08-27T09:44:51.147Z,3.47
2018-08-27T09:47:19.193Z,3.60
2018-08-27T09:49:47.366Z,4.30
2018-08-27T09:52:16.255Z,2.73
2018-08-27T09:54:45.227Z,2.57
2018-08-27T09:57:14.133Z,1.97
2018-08-27T09:59:41.811Z,4.47
2018-08-27T10:02:09.916Z,3.03
2018-08-27T10:04:38.194Z,6.33
2018-08-27T10:07:06.099Z,4.30
2018-08-27T10:09:33.961Z,2.53
2018-08-27T10:12:01.648Z,4.50
2018-08-27T10:14:29.340Z,6.90
2018-08-27T10:16:57.005Z,6.07
2018-08-27T10:19:24.915Z,2.23
2018-08-27T10:21:52.862Z,1.57
2018-08-27T10:24:20.720Z,2.50
2018-08-27T10:26:48.616Z,3.27
2018-08-27T10:29:16.504Z,2.30
2018-08-27T10:31:44.529Z,3.87
2018-08-27T10:34:19.302Z,9.60
2018-08-27T10:36:46.999Z,5.33
2018-08-27T10:39:15.188Z,2.50
2018-08-27T10:41:43.846Z,1.70
2018-08-27T10:44:11.647Z,3.70
2018-08-27T10:46:39.403Z,2.17
2018-08-27T10:49:07.152Z,2.67
2018-08-27T10:51:35.306Z,2.47
2018-08-27T10:54:03.662Z,6.63
2018-08-27T10:56:32.218Z,3.20
2018-08-27T10:59:00.088Z,2.40
2018-08-27T11:01:28.401Z,3.53
2018-08-27T11:03:56.068Z,6.70
2018-08-27T11:06:23.755Z,3.07
2018-08-27T11:08:51.989Z,4.73
2018-08-27T11:11:20.049Z,6.60
2018-08-27T11:13:48.015Z,3.90
2018-08-27T11:16:16.037Z,3.80
2018-08-27T11:18:44.082Z,3.43
2018-08-27T11:21:13.027Z,2.87
2018-08-27T11:23:41.883Z,3.23
2018-08-27T11:26:09.744Z,4.93
2018-08-27T11:28:37.686Z,2.93
2018-08-27T11:31:05.363Z,10.87
2018-08-27T11:33:33.096Z,6.00
2018-08-27T11:36:01.013Z,7.23
2018-08-27T11:38:29.797Z,3.20
2018-08-27T11:40:57.511Z,4.87
2018-08-27T11:43:25.131Z,3.50
2018-08-27T11:45:52.832Z,4.07
2018-08-27T11:48:20.557Z,2.83
2018-08-27T11:50:48.383Z,3.47
2018-08-27T11:53:17.316Z,4.87
2018-08-27T11:55:45.475Z,7.70
2018-08-27T11:58:19.905Z,8.73
2018-08-27T12:00:58.722Z,4.03
2018-08-27T12:03:26.622Z,5.07
2018-08-27T12:05:54.412Z,9.50
2018-08-27T12:08:22.358Z,7.10
2018-08-27T12:10:50.476Z,3.60
2018-08-27T12:13:18.264Z,6.83
2018-08-27T12:15:45.970Z,3.70
2018-08-27T12:18:13.812Z,4.17
2018-08-27T12:20:50.142Z,4.80
2018-08-27T12:23:17.984Z,3.10
2018-08-27T12:25:45.631Z,8.27
2018-08-27T12:28:13.341Z,4.17
2018-08-27T12:30:40.999Z,4.63
2018-08-27T12:33:08.599Z,7.63
2018-08-27T12:35:36.514Z,5.07
2018-08-27T12:38:04.389Z,5.50
2018-08-27T12:40:32.167Z,6.80
2018-08-27T12:42:59.784Z,5.23
2018-08-27T12:45:28.565Z,3.50
2018-08-27T12:47:56.704Z,13.10
2018-08-27T12:50:24.677Z,5.53
2018-08-27T12:52:52.523Z,3.07
2018-08-27T12:55:20.207Z,5.03
2018-08-27T12:57:48.074Z,6.80
2018-08-27T13:00:17.040Z,3.93
2018-08-27T13:02:49.012Z,10.27
2018-08-27T13:05:16.720Z,6.20
2018-08-27T13:07:45.199Z,5.10
2018-08-27T13:10:14.903Z,5.73
2018-08-27T13:12:42.959Z,7.60
2018-08-27T13:15:10.876Z,5.70
2018-08-27T13:17:38.706Z,7.43
2018-08-27T13:20:06.350Z,4.23
2018-08-27T18:39:27.036Z,8.90
2018-08-27T18:41:57.018Z,9.50
2018-08-27T18:44:25.393Z,6.03
2018-08-27T18:46:53.395Z,14.57
2018-08-27T18:49:21.283Z,4.47
2018-08-27T18:51:49.078Z,6.63
2018-08-27T18:54:17.399Z,9.43
2018-08-27T18:56:45.311Z,8.17
2018-08-27T18:59:14.321Z,8.37
2018-08-27T19:01:43.471Z,12.20
2018-08-27T19:04:11.690Z,9.03
2018-08-27T19:06:39.482Z,6.53
2018-08-27T19:09:08.263Z,10.13
2018-08-27T19:11:36.544Z,8.87
2018-08-27T19:14:05.565Z,9.50
2018-08-27T19:16:33.292Z,11.63
2018-08-27T19:19:02.625Z,12.03
2018-08-27T19:21:30.486Z,10.47
2018-08-27T19:23:58.371Z,6.73
2018-08-27T19:26:26.968Z,5.53
2018-08-27T19:28:55.616Z,9.27
2018-08-27T19:31:23.479Z,10.80
2018-08-27T19:33:51.330Z,11.90
2018-08-27T19:36:20.097Z,9.07
2018-08-27T19:38:47.784Z,9.37
2018-08-27T19:41:15.748Z,13.03
2018-08-27T19:43:43.381Z,12.33
2018-08-27T19:46:11.195Z,15.50
2018-08-27T19:48:38.962Z,8.40
2018-08-27T19:51:06.854Z,11.33
2018-08-27T19:53:34.492Z,13.50
2018-08-27T19:56:02.452Z,7.33
2018-08-27T19:58:30.337Z,7.03
2018-08-27T20:00:58.150Z,13.43
2018-08-27T20:03:26.550Z,9.50
2018-08-27T20:05:54.306Z,9.80
2018-08-27T20:08:22.171Z,10.97
2018-08-27T20:10:50.023Z,13.27
2018-08-27T20:13:17.833Z,14.37
2018-08-27T20:15:45.628Z,10.73
2018-08-27T20:18:13.425Z,8.57
2018-08-27T20:20:41.244Z,21.73
2018-08-27T20:23:09.137Z,16.43
2018-08-27T20:25:36.875Z,13.27
2018-08-27T20:28:05.158Z,12.60
2018-08-27T20:30:33.000Z,11.20
2018-08-27T20:33:00.845Z,9.53
2018-08-27T20:35:28.694Z,13.50
2018-08-27T20:37:56.537Z,13.23
2018-08-27T20:40:24.457Z,13.63
2018-08-27T20:42:52.168Z,11.47
2018-08-27T20:45:20.652Z,10.27
2018-08-27T20:47:48.445Z,14.40
2018-08-27T20:50:16.266Z,23.30
2018-08-27T20:52:44.130Z,12.53
2018-08-27T20:55:11.941Z,9.10
2018-08-27T20:57:39.708Z,13.13
2018-08-27T21:00:07.389Z,16.27
2018-08-27T21:02:35.123Z,15.80
2018-08-27T21:05:02.951Z,16.47
2018-08-27T21:07:31.076Z,14.43
2018-08-27T21:09:58.945Z,13.40
2018-08-27T21:12:26.677Z,25.97
2018-08-27T21:15:03.492Z,19.33
2018-08-27T21:17:31.738Z,22.37
2018-08-27T21:19:59.431Z,12.53
2018-08-27T21:22:27.253Z,10.10
2018-08-27T21:24:55.056Z,18.10
2018-08-27T21:27:23.134Z,12.23
2018-08-27T21:29:51.145Z,14.93
2018-08-27T21:32:18.925Z,16.57
2018-08-27T21:34:46.551Z,15.67
2018-08-27T21:37:14.264Z,18.13
2018-08-27T21:39:42.971Z,10.90
2018-08-27T21:42:11.347Z,12.57
2018-08-27T21:44:39.369Z,16.00
2018-08-27T21:47:07.443Z,11.70
2018-08-27T21:49:35.419Z,22.00
2018-08-27T21:52:03.436Z,13.77
2018-08-27T21:54:31.198Z,10.90
2018-08-27T21:56:58.988Z,14.07
2018-08-27T21:59:26.774Z,16.67
2018-08-27T22:01:54.438Z,22.63
2018-08-27T22:04:22.046Z,18.73
2018-08-27T22:06:49.854Z,19.73
2018-08-27T22:09:17.621Z,10.53
2018-08-27T22:11:45.313Z,19.07
2018-08-27T22:14:13.094Z,16.13
2018-08-27T22:16:40.853Z,16.10
2018-08-27T22:19:09.397Z,18.97
2018-08-27T22:21:37.509Z,23.73
2018-08-27T22:24:05.363Z,14.20
2018-08-27T22:26:33.392Z,14.37
2018-08-27T22:29:01.967Z,15.73
2018-08-27T22:31:29.961Z,27.03
2018-08-27T22:33:58.258Z,17.47
2018-08-27T22:36:26.416Z,18.03
2018-08-27T22:38:54.560Z,12.27
2018-08-27T22:41:22.719Z,19.33
2018-08-27T22:43:50.609Z,12.10
2018-08-27T22:46:18.603Z,17.57
2018-08-27T22:48:46.446Z,20.43
2018-08-27T22:51:14.353Z,18.73
2018-08-27T22:53:42.189Z,20.93
2018-08-27T22:56:09.950Z,22.23
2018-08-27T22:58:37.656Z,11.73
2018-08-27T23:01:05.535Z,9.57
2018-08-27T23:03:38.851Z,14.77
2018-08-27T23:06:07.022Z,12.70
2018-08-27T23:08:34.675Z,24.67
2018-08-27T23:11:02.529Z,19.70
2018-08-27T23:13:30.328Z,12.50
2018-08-27T23:15:58.010Z,13.60
2018-08-27T23:18:26.046Z,10.90
2018-08-27T23:20:53.770Z,16.83
2018-08-27T23:23:21.514Z,19.57
2018-08-27T23:25:49.484Z,13.00
2018-08-27T23:28:17.229Z,11.80
2018-08-27T23:30:44.986Z,20.80
2018-08-27T23:33:12.759Z,13.47
2018-08-27T23:35:40.504Z,13.50
2018-08-27T23:38:08.140Z,19.30
2018-08-27T23:40:35.912Z,18.03
2018-08-27T23:43:03.546Z,17.97
2018-08-27T23:45:31.288Z,24.40
2018-08-27T23:47:59.037Z,16.37
2018-08-27T23:50:26.964Z,14.67
2018-08-27T23:52:54.784Z,15.40
2018-08-27T23:55:22.777Z,16.10
2018-08-27T23:57:50.586Z,13.63
